sensor_id;sensor_type;location;lat;lon;timestamp;temperature;humidity
40702;DHT22;26387;50.114;8.662;2022-12-18T00:00:40;-2.10;91.00
40702;DHT22;26387;50.114;8.662;2022-12-18T00:03:06;-2.10;91.20
40702;DHT22;26387;50.114;8.662;2022-12-18T00:05:31;-2.10;91.00
40702;DHT22;26387;50.114;8.662;2022-12-18T00:07:57;-2.10;91.00
40702;DHT22;26387;50.114;8.662;2022-12-18T00:10:22;-2.10;91.10
40702;DHT22;26387;50.114;8.662;2022-12-18T00:12:48;-2.20;91.10
40702;DHT22;26387;50.114;8.662;2022-12-18T00:15:13;-2.20;91.20
40702;DHT22;26387;50.114;8.662;2022-12-18T00:17:39;-2.10;91.10
40702;DHT22;26387;50.114;8.662;2022-12-18T00:20:04;-2.10;91.00
40702;DHT22;26387;50.114;8.662;2022-12-18T00:22:30;-2.10;91.00
40702;DHT22;26387;50.114;8.662;2022-12-18T00:24:55;-2.10;91.00
40702;DHT22;26387;50.114;8.662;2022-12-18T00:27:21;-2.10;90.80
40702;DHT22;26387;50.114;8.662;2022-12-18T00:29:47;-2.10;90.80
40702;DHT22;26387;50.114;8.662;2022-12-18T00:32:13;-2.10;90.60
40702;DHT22;26387;50.114;8.662;2022-12-18T00:34:38;-2.10;90.70
40702;DHT22;26387;50.114;8.662;2022-12-18T00:37:04;-2.10;90.80
40702;DHT22;26387;50.114;8.662;2022-12-18T00:39:29;-2.20;90.70
40702;DHT22;26387;50.114;8.662;2022-12-18T00:41:54;-2.20;90.70
40702;DHT22;26387;50.114;8.662;2022-12-18T00:44:46;-2.20;90.70
40702;DHT22;26387;50.114;8.662;2022-12-18T00:47:11;-2.20;90.80
40702;DHT22;26387;50.114;8.662;2022-12-18T00:49:37;-2.30;90.70
40702;DHT22;26387;50.114;8.662;2022-12-18T00:52:02;-2.20;90.70
40702;DHT22;26387;50.114;8.662;2022-12-18T00:54:28;-2.20;90.60
40702;DHT22;26387;50.114;8.662;2022-12-18T00:56:53;-2.20;90.50
40702;DHT22;26387;50.114;8.662;2022-12-18T00:59:20;-2.20;90.50
40702;DHT22;26387;50.114;8.662;2022-12-18T01:01:45;-2.20;90.50
40702;DHT22;26387;50.114;8.662;2022-12-18T01:04:11;-2.20;90.40
40702;DHT22;26387;50.114;8.662;2022-12-18T01:06:37;-2.30;90.50
40702;DHT22;26387;50.114;8.662;2022-12-18T01:09:02;-2.30;90.60
40702;DHT22;26387;50.114;8.662;2022-12-18T01:11:28;-2.20;90.60
40702;DHT22;26387;50.114;8.662;2022-12-18T01:13:53;-2.20;90.40
40702;DHT22;26387;50.114;8.662;2022-12-18T01:16:19;-2.30;90.40
40702;DHT22;26387;50.114;8.662;2022-12-18T01:18:45;-2.30;90.40
40702;DHT22;26387;50.114;8.662;2022-12-18T01:21:11;-2.20;90.30
40702;DHT22;26387;50.114;8.662;2022-12-18T01:23:37;-2.30;90.00
40702;DHT22;26387;50.114;8.662;2022-12-18T01:26:10;-2.30;89.80
40702;DHT22;26387;50.114;8.662;2022-12-18T01:28:36;-2.40;89.80
40702;DHT22;26387;50.114;8.662;2022-12-18T01:31:15;-2.40;90.00
40702;DHT22;26387;50.114;8.662;2022-12-18T01:33:40;-2.40;90.00
40702;DHT22;26387;50.114;8.662;2022-12-18T01:36:06;-2.50;90.00
40702;DHT22;26387;50.114;8.662;2022-12-18T01:38:31;-2.50;90.00
40702;DHT22;26387;50.114;8.662;2022-12-18T01:40:58;-2.50;90.00
40702;DHT22;26387;50.114;8.662;2022-12-18T01:43:40;-2.50;90.00
40702;DHT22;26387;50.114;8.662;2022-12-18T01:46:05;-2.50;90.00
40702;DHT22;26387;50.114;8.662;2022-12-18T01:48:31;-2.60;90.40
40702;DHT22;26387;50.114;8.662;2022-12-18T01:50:56;-2.60;90.30
40702;DHT22;26387;50.114;8.662;2022-12-18T01:53:22;-2.60;90.50
40702;DHT22;26387;50.114;8.662;2022-12-18T01:55:49;-2.70;90.50
40702;DHT22;26387;50.114;8.662;2022-12-18T01:58:15;-2.70;90.60
40702;DHT22;26387;50.114;8.662;2022-12-18T02:00:41;-2.70;90.70
40702;DHT22;26387;50.114;8.662;2022-12-18T02:03:06;-2.70;90.90
40702;DHT22;26387;50.114;8.662;2022-12-18T02:08:01;-2.60;91.00
40702;DHT22;26387;50.114;8.662;2022-12-18T02:13:32;-2.60;90.90
40702;DHT22;26387;50.114;8.662;2022-12-18T02:16:10;-2.50;90.80
40702;DHT22;26387;50.114;8.662;2022-12-18T02:18:38;-2.50;90.90
40702;DHT22;26387;50.114;8.662;2022-12-18T02:21:27;-2.50;90.90
40702;DHT22;26387;50.114;8.662;2022-12-18T02:24:08;-2.50;90.90
40702;DHT22;26387;50.114;8.662;2022-12-18T02:26:39;-2.40;90.90
40702;DHT22;26387;50.114;8.662;2022-12-18T02:29:18;-2.40;90.90
40702;DHT22;26387;50.114;8.662;2022-12-18T02:31:47;-2.40;90.90
40702;DHT22;26387;50.114;8.662;2022-12-18T02:34:14;-2.40;90.80
40702;DHT22;26387;50.114;8.662;2022-12-18T02:36:40;-2.40;90.80
40702;DHT22;26387;50.114;8.662;2022-12-18T02:39:07;-2.50;90.70
40702;DHT22;26387;50.114;8.662;2022-12-18T02:41:33;-2.50;90.90
40702;DHT22;26387;50.114;8.662;2022-12-18T02:44:00;-2.50;91.00
40702;DHT22;26387;50.114;8.662;2022-12-18T02:46:28;-2.50;91.00
40702;DHT22;26387;50.114;8.662;2022-12-18T02:48:58;-2.60;91.00
40702;DHT22;26387;50.114;8.662;2022-12-18T02:51:31;-2.60;91.10
40702;DHT22;26387;50.114;8.662;2022-12-18T02:53:59;-2.70;91.10
40702;DHT22;26387;50.114;8.662;2022-12-18T02:56:28;-2.70;91.20
40702;DHT22;26387;50.114;8.662;2022-12-18T03:03:54;-2.80;91.10
40702;DHT22;26387;50.114;8.662;2022-12-18T03:06:23;-2.90;91.10
40702;DHT22;26387;50.114;8.662;2022-12-18T03:08:49;-2.90;91.20
40702;DHT22;26387;50.114;8.662;2022-12-18T03:11:16;-3.00;91.20
40702;DHT22;26387;50.114;8.662;2022-12-18T11:10:55;-3.00;91.40
40702;DHT22;26387;50.114;8.662;2022-12-18T11:13:22;-1.20;87.40
40702;DHT22;26387;50.114;8.662;2022-12-18T11:15:48;-1.20;87.80
40702;DHT22;26387;50.114;8.662;2022-12-18T11:30:30;-1.00;88.30
40702;DHT22;26387;50.114;8.662;2022-12-18T11:33:05;-0.70;85.90
40702;DHT22;26387;50.114;8.662;2022-12-18T11:35:40;-0.90;86.90
40702;DHT22;26387;50.114;8.662;2022-12-18T11:38:40;-1.00;87.20
40702;DHT22;26387;50.114;8.662;2022-12-18T11:41:00;-0.90;87.90
40702;DHT22;26387;50.114;8.662;2022-12-18T11:46:06;-0.80;87.80
40702;DHT22;26387;50.114;8.662;2022-12-18T11:48:37;-0.70;87.20
40702;DHT22;26387;50.114;8.662;2022-12-18T11:51:04;-0.70;87.00
40702;DHT22;26387;50.114;8.662;2022-12-18T11:53:30;-0.70;87.40
40702;DHT22;26387;50.114;8.662;2022-12-18T12:38:08;0.50;85.40
40702;DHT22;26387;50.114;8.662;2022-12-18T12:40:37;0.40;85.60
40702;DHT22;26387;50.114;8.662;2022-12-18T12:43:12;0.50;85.90
40702;DHT22;26387;50.114;8.662;2022-12-18T12:45:54;0.50;86.20
40702;DHT22;26387;50.114;8.662;2022-12-18T12:50:47;0.30;86.70
40702;DHT22;26387;50.114;8.662;2022-12-18T12:53:16;0.10;87.00
40702;DHT22;26387;50.114;8.662;2022-12-18T12:55:44;0.10;87.30
40702;DHT22;26387;50.114;8.662;2022-12-18T13:07:54;-0.10;87.80
40702;DHT22;26387;50.114;8.662;2022-12-18T13:12:54;0.90;85.70
40702;DHT22;26387;50.114;8.662;2022-12-18T13:17:49;0.50;86.30
40702;DHT22;26387;50.114;8.662;2022-12-18T13:20:32;0.50;86.70
40702;DHT22;26387;50.114;8.662;2022-12-18T13:22:58;0.50;87.30
40702;DHT22;26387;50.114;8.662;2022-12-18T13:25:41;0.60;87.10
40702;DHT22;26387;50.114;8.662;2022-12-18T13:28:08;0.60;86.90
40702;DHT22;26387;50.114;8.662;2022-12-18T13:38:32;0.70;87.80
40702;DHT22;26387;50.114;8.662;2022-12-18T13:40:58;0.70;87.70
40702;DHT22;26387;50.114;8.662;2022-12-18T13:43:26;0.80;87.30
40702;DHT22;26387;50.114;8.662;2022-12-18T13:46:03;0.90;87.40
40702;DHT22;26387;50.114;8.662;2022-12-18T13:48:30;1.00;86.80
40702;DHT22;26387;50.114;8.662;2022-12-18T13:50:58;1.00;86.90
40702;DHT22;26387;50.114;8.662;2022-12-18T13:53:28;0.80;87.50
40702;DHT22;26387;50.114;8.662;2022-12-18T13:55:54;0.80;87.60
40702;DHT22;26387;50.114;8.662;2022-12-18T13:58:20;0.80;88.20
40702;DHT22;26387;50.114;8.662;2022-12-18T14:00:45;0.70;87.80
40702;DHT22;26387;50.114;8.662;2022-12-18T14:03:18;0.60;88.30
40702;DHT22;26387;50.114;8.662;2022-12-18T14:05:44;0.60;88.70
40702;DHT22;26387;50.114;8.662;2022-12-18T14:08:11;0.70;88.50
40702;DHT22;26387;50.114;8.662;2022-12-18T14:10:44;0.80;88.20
40702;DHT22;26387;50.114;8.662;2022-12-18T14:13:11;0.80;88.60
40702;DHT22;26387;50.114;8.662;2022-12-18T14:15:43;0.90;88.10
40702;DHT22;26387;50.114;8.662;2022-12-18T14:21:17;0.80;88.40
40702;DHT22;26387;50.114;8.662;2022-12-18T14:23:42;0.70;88.70
40702;DHT22;26387;50.114;8.662;2022-12-18T14:26:24;0.60;89.00
40702;DHT22;26387;50.114;8.662;2022-12-18T14:28:52;0.70;88.90
40702;DHT22;26387;50.114;8.662;2022-12-18T14:31:20;0.70;88.70
40702;DHT22;26387;50.114;8.662;2022-12-18T14:33:45;0.70;88.90
40702;DHT22;26387;50.114;8.662;2022-12-18T14:36:13;0.80;89.00
40702;DHT22;26387;50.114;8.662;2022-12-18T14:38:40;0.90;88.40
40702;DHT22;26387;50.114;8.662;2022-12-18T14:41:06;0.90;88.20
40702;DHT22;26387;50.114;8.662;2022-12-18T14:43:33;0.90;89.10
40702;DHT22;26387;50.114;8.662;2022-12-18T14:45:58;0.90;88.30
40702;DHT22;26387;50.114;8.662;2022-12-18T14:48:42;0.90;88.40
40702;DHT22;26387;50.114;8.662;2022-12-18T14:53:39;1.00;88.40
40702;DHT22;26387;50.114;8.662;2022-12-18T14:56:15;1.00;88.40
40702;DHT22;26387;50.114;8.662;2022-12-18T14:58:51;1.10;88.30
40702;DHT22;26387;50.114;8.662;2022-12-18T15:01:19;1.10;88.40
40702;DHT22;26387;50.114;8.662;2022-12-18T15:03:45;1.00;88.50
40702;DHT22;26387;50.114;8.662;2022-12-18T15:08:55;1.10;88.60
40702;DHT22;26387;50.114;8.662;2022-12-18T15:11:28;1.20;89.20
40702;DHT22;26387;50.114;8.662;2022-12-18T15:13:54;1.10;88.80
40702;DHT22;26387;50.114;8.662;2022-12-18T15:16:20;1.20;89.00
40702;DHT22;26387;50.114;8.662;2022-12-18T15:18:45;1.10;88.60
40702;DHT22;26387;50.114;8.662;2022-12-18T15:21:17;1.10;88.90
40702;DHT22;26387;50.114;8.662;2022-12-18T15:26:09;1.10;89.20
40702;DHT22;26387;50.114;8.662;2022-12-18T15:28:45;1.00;89.70
40702;DHT22;26387;50.114;8.662;2022-12-18T15:33:40;1.00;89.70
40702;DHT22;26387;50.114;8.662;2022-12-18T15:36:10;1.00;90.20
40702;DHT22;26387;50.114;8.662;2022-12-18T15:38:36;1.00;90.00
40702;DHT22;26387;50.114;8.662;2022-12-18T15:41:01;1.10;89.90
40702;DHT22;26387;50.114;8.662;2022-12-18T15:43:30;1.10;89.70
40702;DHT22;26387;50.114;8.662;2022-12-18T15:46:02;1.00;89.90
40702;DHT22;26387;50.114;8.662;2022-12-18T15:48:28;0.90;90.10
40702;DHT22;26387;50.114;8.662;2022-12-18T15:50:54;0.90;90.30
40702;DHT22;26387;50.114;8.662;2022-12-18T15:53:22;0.90;90.20
40702;DHT22;26387;50.114;8.662;2022-12-18T15:55:48;0.90;90.20
40702;DHT22;26387;50.114;8.662;2022-12-18T15:58:32;0.90;90.40
40702;DHT22;26387;50.114;8.662;2022-12-18T16:00:58;0.90;90.30
40702;DHT22;26387;50.114;8.662;2022-12-18T16:03:24;1.00;90.40
40702;DHT22;26387;50.114;8.662;2022-12-18T16:05:49;1.00;90.30
40702;DHT22;26387;50.114;8.662;2022-12-18T16:08:15;1.10;90.10
40702;DHT22;26387;50.114;8.662;2022-12-18T16:10:40;1.20;90.10
40702;DHT22;26387;50.114;8.662;2022-12-18T16:13:08;1.20;90.00
40702;DHT22;26387;50.114;8.662;2022-12-18T16:15:34;1.30;89.90
40702;DHT22;26387;50.114;8.662;2022-12-18T16:17:59;1.30;89.80
40702;DHT22;26387;50.114;8.662;2022-12-18T17:48:02;1.30;89.70
40702;DHT22;26387;50.114;8.662;2022-12-18T17:50:28;1.40;90.20
40702;DHT22;26387;50.114;8.662;2022-12-18T17:52:56;1.40;90.30
40702;DHT22;26387;50.114;8.662;2022-12-18T17:55:22;1.40;90.60
40702;DHT22;26387;50.114;8.662;2022-12-18T17:57:48;1.40;90.30
40702;DHT22;26387;50.114;8.662;2022-12-18T18:00:13;1.40;90.30
40702;DHT22;26387;50.114;8.662;2022-12-18T18:02:39;1.50;90.40
40702;DHT22;26387;50.114;8.662;2022-12-18T18:05:05;1.50;90.30
40702;DHT22;26387;50.114;8.662;2022-12-18T18:07:30;1.60;90.30
40702;DHT22;26387;50.114;8.662;2022-12-18T18:09:56;1.50;90.00
40702;DHT22;26387;50.114;8.662;2022-12-18T18:12:21;1.60;90.00
40702;DHT22;26387;50.114;8.662;2022-12-18T18:15:05;1.60;90.10
40702;DHT22;26387;50.114;8.662;2022-12-18T18:17:31;1.60;90.10
40702;DHT22;26387;50.114;8.662;2022-12-18T18:19:56;1.60;90.20
40702;DHT22;26387;50.114;8.662;2022-12-18T18:22:22;1.60;90.30
